Terminal Aerodrome Forecast
Issued by NWS Topeka, KS

Home | Current Version | Previous Version | Text Only | Print | Product List | Glossary On
Versions: 1 2 3 4 5 6 7 8 9 10 11 12 13 14 15 16 17 18 19 20 21 22
000
FTUS43 KTOP 280210 AAA
TAFTOP
TAF AMD
KTOP 280210Z 2802/2824 12008KT P6SM BKN150
     FM280800 17010KT P6SM OVC050
      TEMPO 2809/2812 5SM -SHRA
     FM281300 19010KT P6SM BKN050
     FM281900 23012KT P6SM VCTS BKN050CB
     FM282200 23010KT P6SM SCT050 BKN120=

USA.gov is the U.S. government's official web portal to all federal, state and local government web resources and services.